createdAt,value
2023-01-09T00:00:28.017Z,96605.47
2023-01-09T00:02:54.540Z,96606.84
2023-01-09T00:05:21.877Z,96595.66
2023-01-09T00:07:48.300Z,96604.91
2023-01-09T00:10:15.390Z,96598.09
2023-01-09T00:12:42.008Z,96600.66
2023-01-09T00:15:09.173Z,96602.00
2023-01-09T00:17:35.608Z,96607.34
2023-01-09T00:20:02.113Z,96599.84
2023-01-09T00:22:28.558Z,96585.06
2023-01-09T00:24:55.039Z,96588.47
2023-01-09T00:27:21.454Z,96586.41
2023-01-09T00:29:49.393Z,96575.41
2023-01-09T00:32:16.240Z,96572.28
2023-01-09T00:34:45.736Z,96574.34
2023-01-09T00:37:12.832Z,96571.00
2023-01-09T00:39:40.255Z,96575.06
2023-01-09T00:42:10.088Z,96578.16
2023-01-09T00:44:48.314Z,96568.03
2023-01-09T00:47:21.175Z,96562.38
2023-01-09T00:49:49.021Z,96575.06
2023-01-09T00:52:16.057Z,96570.63
2023-01-09T00:54:43.734Z,96569.41
2023-01-09T00:57:12.888Z,96560.53
2023-01-09T00:59:41.203Z,96558.25
2023-01-09T01:02:08.259Z,96556.41
2023-01-09T01:04:53.545Z,96562.72
2023-01-09T01:07:38.649Z,96566.53
2023-01-09T01:10:20.133Z,96564.06
2023-01-09T01:12:48.057Z,96560.03
2023-01-09T01:15:14.659Z,96566.81
2023-01-09T01:17:42.108Z,96563.63
2023-01-09T01:20:12.966Z,96565.56
2023-01-09T01:22:42.192Z,96560.88
2023-01-09T01:25:10.187Z,96564.22
2023-01-09T01:27:36.622Z,96560.44
2023-01-09T01:30:03.375Z,96550.94
2023-01-09T01:32:29.768Z,96566.59
2023-01-09T01:34:56.217Z,96568.34
2023-01-09T01:37:23.493Z,96570.44
2023-01-09T01:39:50.010Z,96560.56
2023-01-09T01:42:16.489Z,96552.78
2023-01-09T01:45:03.421Z,96569.50
2023-01-09T01:47:33.506Z,96580.19
2023-01-09T01:50:03.742Z,96581.28
2023-01-09T01:52:32.396Z,96583.94
2023-01-09T01:54:59.002Z,96575.78
2023-01-09T01:57:25.976Z,96576.53
2023-01-09T01:59:56.358Z,96577.84
2023-01-09T02:02:28.962Z,96578.91
2023-01-09T02:04:57.336Z,96574.16
2023-01-09T02:07:24.030Z,96577.31
2023-01-09T02:09:51.560Z,96580.34
2023-01-09T02:12:19.858Z,96582.28
2023-01-09T02:14:48.377Z,96578.34
2023-01-09T02:17:53.769Z,96566.00
2023-01-09T02:20:58.893Z,96575.41
2023-01-09T02:23:47.008Z,96554.47
2023-01-09T02:26:44.606Z,96562.00
2023-01-09T02:29:28.159Z,96566.13
2023-01-09T02:32:10.708Z,96571.59
2023-01-09T02:34:58.744Z,96571.53
2023-01-09T02:37:41.319Z,96581.72
2023-01-09T02:40:39.551Z,96591.09
2023-01-09T02:43:08.157Z,96581.63
2023-01-09T02:45:34.642Z,96580.91
2023-01-09T02:48:01.041Z,96575.16
2023-01-09T02:50:37.368Z,96582.63
2023-01-09T02:53:22.766Z,96589.22
2023-01-09T02:55:55.590Z,96594.16
2023-01-09T02:58:33.807Z,96581.72
2023-01-09T03:01:12.412Z,96579.34
2023-01-09T03:04:19.363Z,96577.91
2023-01-09T03:07:00.631Z,96590.44
2023-01-09T03:09:31.676Z,96589.97
2023-01-09T03:12:08.294Z,96611.22
2023-01-09T03:14:38.366Z,96601.47
2023-01-09T03:17:10.302Z,96606.03
2023-01-09T03:19:38.112Z,96613.22
2023-01-09T03:22:05.182Z,96614.00
2023-01-09T03:24:31.940Z,96620.50
2023-01-09T03:26:58.411Z,96629.59
2023-01-09T03:29:24.975Z,96638.53
2023-01-09T03:31:51.587Z,96641.69
2023-01-09T03:34:18.211Z,96648.63
2023-01-09T03:36:44.846Z,96657.75
2023-01-09T03:39:11.315Z,96656.47
2023-01-09T03:41:37.671Z,96651.97
2023-01-09T03:44:04.181Z,96655.75
2023-01-09T03:46:30.701Z,96664.03
2023-01-09T03:48:57.958Z,96667.50
2023-01-09T03:51:24.430Z,96662.56
2023-01-09T03:53:50.957Z,96668.41
2023-01-09T03:56:17.398Z,96657.84
2023-01-09T03:58:43.829Z,96663.28
2023-01-09T04:01:12.743Z,96661.03
2023-01-09T04:03:39.863Z,96674.47
2023-01-09T04:06:06.923Z,96675.16
2023-01-09T04:08:33.739Z,96669.91
2023-01-09T04:11:00.207Z,96680.09
2023-01-09T04:13:26.568Z,96680.38
2023-01-09T04:15:52.993Z,96686.06
2023-01-09T04:18:20.396Z,96691.09
2023-01-09T04:20:48.335Z,96699.13
2023-01-09T04:23:14.954Z,96689.09
2023-01-09T04:25:41.435Z,96697.78
2023-01-09T04:28:07.909Z,96699.75
2023-01-09T04:30:34.357Z,96703.56
2023-01-09T04:33:00.740Z,96701.75
2023-01-09T04:35:27.228Z,96715.44
2023-01-09T04:37:53.677Z,96713.31
2023-01-09T04:40:20.287Z,96719.81
2023-01-09T04:42:46.779Z,96722.84
2023-01-09T04:45:15.589Z,96730.25
2023-01-09T04:47:42.034Z,96726.47
2023-01-09T04:50:10.234Z,96729.13
2023-01-09T04:52:38.853Z,96732.28
2023-01-09T04:55:07.381Z,96742.88
2023-01-09T04:57:34.395Z,96742.22
2023-01-09T05:00:01.003Z,96742.19
2023-01-09T05:02:27.474Z,96750.16
2023-01-09T05:04:53.863Z,96749.63
2023-01-09T05:07:20.284Z,96764.03
2023-01-09T05:09:46.773Z,96764.69
2023-01-09T05:12:13.206Z,96763.22
2023-01-09T05:14:39.880Z,96773.44
2023-01-09T05:17:06.382Z,96781.72
2023-01-09T05:19:32.940Z,96789.13
2023-01-09T05:21:59.350Z,96781.22
2023-01-09T05:24:25.798Z,96781.72
2023-01-09T05:26:52.260Z,96779.88
2023-01-09T05:29:18.740Z,96789.81
2023-01-09T05:31:45.211Z,96787.97
2023-01-09T05:34:11.808Z,96800.53
2023-01-09T05:36:38.233Z,96800.38
2023-01-09T05:39:05.487Z,96806.50
2023-01-09T05:41:32.179Z,96813.09
2023-01-09T05:43:58.595Z,96811.78
2023-01-09T05:46:25.024Z,96814.28
2023-01-09T05:48:51.382Z,96815.59
2023-01-09T05:51:17.938Z,96818.91
2023-01-09T05:53:44.326Z,96825.22
2023-01-09T05:56:11.819Z,96831.78
2023-01-09T05:58:38.500Z,96834.44
2023-01-09T06:01:05.123Z,96833.28
2023-01-09T06:03:31.712Z,96840.56
2023-01-09T06:05:58.171Z,96836.25
2023-01-09T06:08:24.676Z,96846.50
2023-01-09T06:10:51.381Z,96847.00
2023-01-09T06:13:17.850Z,96838.72
2023-01-09T06:15:44.331Z,96848.59
2023-01-09T06:18:10.755Z,96866.38
2023-01-09T06:20:37.120Z,96867.09
2023-01-09T06:23:03.653Z,96862.56
2023-01-09T06:25:30.141Z,96881.31
2023-01-09T06:27:56.558Z,96876.31
2023-01-09T06:30:23.015Z,96872.72
2023-01-09T06:32:50.108Z,96883.84
2023-01-09T06:35:20.507Z,96894.88
2023-01-09T06:37:50.770Z,96891.91
2023-01-09T06:40:18.088Z,96894.72
2023-01-09T06:42:46.222Z,96906.41
2023-01-09T06:45:14.002Z,96892.13
2023-01-09T06:47:40.838Z,96909.75
2023-01-09T06:50:09.346Z,96910.03
2023-01-09T06:52:36.652Z,96919.44
2023-01-09T06:55:03.565Z,96921.28
2023-01-09T06:57:30.038Z,96915.97
2023-01-09T06:59:56.467Z,96925.69
2023-01-09T07:02:22.911Z,96921.06
2023-01-09T07:04:49.371Z,96929.31
2023-01-09T07:07:16.037Z,96937.25
2023-01-09T07:09:42.472Z,96933.44
2023-01-09T07:12:08.923Z,96926.06
2023-01-09T07:14:35.327Z,96933.00
2023-01-09T07:17:01.878Z,96923.78
2023-01-09T07:19:28.265Z,96925.25
2023-01-09T07:21:54.682Z,96939.94
2023-01-09T07:24:21.117Z,96936.34
2023-01-09T07:26:47.636Z,96939.34
2023-01-09T07:29:14.145Z,96937.19
2023-01-09T07:31:40.682Z,96955.97
2023-01-09T07:34:07.168Z,96955.66
2023-01-09T07:36:33.607Z,96949.38
2023-01-09T07:39:00.066Z,96950.88
2023-01-09T07:41:26.524Z,96954.34
2023-01-09T07:43:52.926Z,96967.59
2023-01-09T07:46:19.403Z,96958.31
2023-01-09T07:48:45.914Z,96959.84
2023-01-09T07:51:12.665Z,96967.91
2023-01-09T07:53:39.130Z,96971.72
2023-01-09T07:56:05.828Z,96954.69
2023-01-09T07:58:32.408Z,96972.56
2023-01-09T08:00:58.882Z,96970.75
2023-01-09T08:03:26.972Z,96969.28
2023-01-09T08:05:53.490Z,96979.00
2023-01-09T08:08:19.946Z,96977.19
2023-01-09T08:10:46.509Z,96973.09
2023-01-09T08:13:13.020Z,96974.91
2023-01-09T08:15:39.502Z,96982.13
2023-01-09T08:18:06.083Z,96972.25
2023-01-09T08:20:32.824Z,96980.66
2023-01-09T08:22:59.249Z,96977.38
2023-01-09T08:25:25.940Z,96982.84
2023-01-09T08:27:52.600Z,96978.91
2023-01-09T08:30:19.488Z,96975.91
2023-01-09T08:32:53.928Z,96992.78
2023-01-09T08:35:20.687Z,96967.63
2023-01-09T08:37:48.092Z,96978.00
2023-01-09T08:40:16.336Z,96972.16
2023-01-09T08:43:01.665Z,96991.44
2023-01-09T08:45:47.255Z,96993.16
2023-01-09T08:48:13.767Z,96996.78
2023-01-09T08:50:40.365Z,96989.81
2023-01-09T08:53:06.840Z,96977.94
2023-01-09T08:55:33.227Z,96983.13
2023-01-09T08:57:59.619Z,96985.56
2023-01-09T09:00:26.367Z,96988.84
2023-01-09T09:02:55.230Z,96981.56
2023-01-09T09:05:23.316Z,96989.78
2023-01-09T09:07:51.114Z,96992.41
2023-01-09T09:10:18.166Z,96989.59
2023-01-09T09:12:45.204Z,97001.50
2023-01-09T09:15:23.841Z,96992.75
2023-01-09T09:17:56.029Z,96994.41
2023-01-09T09:20:24.768Z,96997.56
2023-01-09T09:22:51.367Z,96991.63
2023-01-09T09:25:18.856Z,96978.38
2023-01-09T09:27:45.809Z,96980.69
2023-01-09T09:30:15.318Z,96975.53
2023-01-09T09:32:41.916Z,96973.72
2023-01-09T09:35:09.477Z,96976.88
2023-01-09T09:37:36.570Z,96978.75
2023-01-09T09:40:17.586Z,96969.97
2023-01-09T09:43:26.295Z,96982.16
2023-01-09T09:46:05.709Z,96985.16
2023-01-09T09:48:38.951Z,96992.44
2023-01-09T09:51:28.410Z,96987.91
2023-01-09T09:54:00.082Z,96988.56
2023-01-09T09:56:28.740Z,97002.03
2023-01-09T09:59:19.091Z,97004.06
2023-01-09T10:02:24.062Z,96995.28
2023-01-09T10:05:00.016Z,96998.22
2023-01-09T10:07:33.351Z,96992.91
2023-01-09T10:10:10.734Z,96988.97
2023-01-09T10:12:52.485Z,96985.97
2023-01-09T10:15:28.214Z,96988.28
2023-01-09T10:18:53.201Z,96978.63
2023-01-09T10:21:51.538Z,96982.44
2023-01-09T10:24:26.684Z,96998.19
2023-01-09T10:26:54.083Z,97008.94
2023-01-09T10:29:41.853Z,96981.63
2023-01-09T10:32:33.899Z,96981.59
2023-01-09T10:35:23.876Z,96991.75
2023-01-09T10:37:53.365Z,96995.13
2023-01-09T10:40:32.672Z,96997.31
2023-01-09T10:43:05.805Z,96988.22
2023-01-09T10:45:41.497Z,96983.75
2023-01-09T10:48:23.022Z,96987.91
2023-01-09T10:50:52.043Z,96988.91
2023-01-09T10:53:29.137Z,96996.56
2023-01-09T10:56:02.269Z,97008.84
2023-01-09T10:58:29.517Z,97016.44
2023-01-09T11:00:56.949Z,97009.34
2023-01-09T11:03:25.229Z,97006.19
2023-01-09T11:05:55.073Z,96997.91
2023-01-09T11:08:29.506Z,96993.09
2023-01-09T11:11:01.235Z,96985.25
2023-01-09T11:13:33.610Z,96983.25
2023-01-09T11:16:22.192Z,96987.81
2023-01-09T11:19:01.113Z,96993.47
2023-01-09T11:21:27.461Z,96982.63
2023-01-09T11:24:14.568Z,96995.09
2023-01-09T11:26:41.029Z,97000.72
2023-01-09T11:29:11.910Z,97006.75
2023-01-09T11:31:40.808Z,96999.47
2023-01-09T11:34:16.426Z,96997.34
2023-01-09T11:36:43.465Z,97000.84
2023-01-09T11:39:23.940Z,97016.34
2023-01-09T11:42:00.097Z,97020.88
2023-01-09T11:44:28.772Z,97019.66
2023-01-09T11:46:55.236Z,97016.34
2023-01-09T11:49:26.513Z,97013.84
2023-01-09T11:52:20.501Z,97029.53
2023-01-09T11:55:04.268Z,97016.81
2023-01-09T11:57:32.501Z,97020.34
2023-01-09T12:00:02.478Z,97029.78
2023-01-09T12:03:12.070Z,97026.69
2023-01-09T12:05:49.970Z,97029.34
2023-01-09T12:08:39.682Z,97027.84
2023-01-09T12:11:12.350Z,97028.00
2023-01-09T12:14:25.457Z,97025.31
2023-01-09T12:16:55.107Z,97023.00
2023-01-09T12:19:50.438Z,97026.47
2023-01-09T12:22:25.191Z,97025.00
2023-01-09T12:25:09.632Z,97019.38
2023-01-09T12:27:48.197Z,97018.56
2023-01-09T12:30:28.872Z,97016.69
2023-01-09T12:33:23.241Z,97009.09
2023-01-09T12:36:17.234Z,97013.78
2023-01-09T12:39:30.933Z,97016.44
2023-01-09T12:42:21.804Z,97010.00
2023-01-09T12:44:58.614Z,97002.34
2023-01-09T12:47:45.588Z,97014.41
2023-01-09T12:50:38.541Z,97015.84
2023-01-09T12:53:17.097Z,97010.75
2023-01-09T12:55:49.424Z,97002.28
2023-01-09T12:58:53.244Z,97011.56
2023-01-09T13:01:29.646Z,97005.97
2023-01-09T13:04:37.866Z,97007.34
2023-01-09T13:07:18.075Z,97020.66
2023-01-09T13:09:52.269Z,97032.69
2023-01-09T13:12:22.070Z,97030.75
2023-01-09T13:14:51.431Z,97042.09
2023-01-09T13:17:23.120Z,97035.66
2023-01-09T13:19:49.679Z,97038.25
2023-01-09T13:22:18.097Z,97030.34
2023-01-09T13:25:06.177Z,97046.53
2023-01-09T13:27:39.305Z,97039.06
2023-01-09T13:30:32.618Z,97042.72
2023-01-09T13:33:20.482Z,97036.06
2023-01-09T13:35:52.361Z,97036.22
2023-01-09T13:38:22.332Z,97035.50
2023-01-09T13:41:21.063Z,97032.63
2023-01-09T13:44:02.073Z,97030.63
2023-01-09T13:46:41.896Z,97032.81
2023-01-09T13:49:40.421Z,97035.78
2023-01-09T13:52:31.675Z,97038.59
2023-01-09T13:55:01.576Z,97028.16
2023-01-09T13:57:29.782Z,97033.44
2023-01-09T14:00:17.510Z,97043.28
2023-01-09T14:02:46.483Z,97041.59
2023-01-09T14:05:15.838Z,97058.66
2023-01-09T14:07:45.505Z,97065.81
2023-01-09T14:10:31.056Z,97060.16
2023-01-09T14:12:57.998Z,97052.06
2023-01-09T14:15:40.264Z,97059.00
2023-01-09T14:18:45.197Z,97062.50
2023-01-09T14:21:12.877Z,97069.75
2023-01-09T14:23:53.361Z,97067.94
2023-01-09T14:26:41.180Z,97078.06
2023-01-09T14:29:29.654Z,97075.88
2023-01-09T14:32:21.069Z,97087.00
2023-01-09T14:34:58.636Z,97086.00
2023-01-09T14:37:28.497Z,97089.47
2023-01-09T14:39:56.802Z,97098.59
2023-01-09T14:42:28.308Z,97103.56
2023-01-09T14:44:58.757Z,97111.50
2023-01-09T14:47:31.206Z,97117.28
2023-01-09T14:50:06.700Z,97127.91
2023-01-09T14:52:45.132Z,97132.06
2023-01-09T14:55:26.717Z,97135.88
2023-01-09T14:57:55.046Z,97142.66
2023-01-09T15:00:22.814Z,97137.66
2023-01-09T15:02:51.686Z,97148.41
2023-01-09T15:05:21.785Z,97146.28
2023-01-09T15:08:02.472Z,97157.66
2023-01-09T15:10:36.717Z,97163.16
2023-01-09T15:13:07.907Z,97174.91
2023-01-09T15:15:35.594Z,97175.19
2023-01-09T15:18:06.710Z,97178.22
2023-01-09T15:20:34.541Z,97188.19
2023-01-09T15:23:05.365Z,97196.75
2023-01-09T15:25:39.006Z,97200.06
2023-01-09T15:28:23.340Z,97203.53
2023-01-09T15:30:56.188Z,97198.69
2023-01-09T15:33:22.711Z,97203.03
2023-01-09T15:35:52.531Z,97210.00
2023-01-09T15:38:23.604Z,97207.34
2023-01-09T15:40:59.840Z,97211.69
2023-01-09T15:43:29.858Z,97223.50
2023-01-09T15:45:58.154Z,97216.19
2023-01-09T15:48:29.795Z,97217.94
2023-01-09T15:51:22.583Z,97227.69
2023-01-09T15:53:53.631Z,97224.41
2023-01-09T15:56:33.320Z,97229.53
2023-01-09T15:59:01.116Z,97230.06
2023-01-09T16:01:35.468Z,97249.41
2023-01-09T16:04:07.004Z,97251.78
2023-01-09T16:06:48.052Z,97259.66
2023-01-09T16:09:29.105Z,97281.03
2023-01-09T16:12:00.511Z,97283.06
2023-01-09T16:14:35.175Z,97292.53
2023-01-09T16:17:07.304Z,97303.81
2023-01-09T16:19:55.224Z,97320.56
2023-01-09T16:22:33.519Z,97324.94
2023-01-09T16:25:02.722Z,97324.91
2023-01-09T16:27:35.301Z,97321.72
2023-01-09T16:30:06.075Z,97323.16
2023-01-09T16:32:46.700Z,97321.19
2023-01-09T16:35:17.304Z,97331.94
2023-01-09T16:37:43.786Z,97325.88
2023-01-09T16:40:22.400Z,97342.56
2023-01-09T16:43:00.426Z,97340.97
2023-01-09T16:45:37.080Z,97340.00
2023-01-09T16:48:16.299Z,97346.66
2023-01-09T16:50:44.023Z,97348.78
2023-01-09T16:53:15.701Z,97352.25
2023-01-09T16:55:42.201Z,97354.88
2023-01-09T16:58:19.471Z,97353.63
2023-01-09T17:00:46.114Z,97358.81
2023-01-09T17:03:14.560Z,97355.56
2023-01-09T17:05:41.412Z,97359.25
2023-01-09T17:08:29.348Z,97366.44
2023-01-09T17:10:57.285Z,97371.13
2023-01-09T17:13:25.276Z,97375.22
2023-01-09T17:15:53.733Z,97381.13
2023-01-09T17:18:22.482Z,97383.44
2023-01-09T17:20:52.118Z,97397.88
2023-01-09T17:23:20.918Z,97383.44
2023-01-09T17:26:06.697Z,97395.22
2023-01-09T17:28:33.297Z,97392.81
2023-01-09T17:31:09.226Z,97406.53
2023-01-09T17:33:37.649Z,97403.34
2023-01-09T17:36:13.325Z,97411.84
2023-01-09T17:38:39.692Z,97414.88
2023-01-09T17:41:06.128Z,97416.66
2023-01-09T17:43:32.821Z,97419.09
2023-01-09T17:46:00.100Z,97423.34
2023-01-09T17:48:26.651Z,97422.94
2023-01-09T17:50:53.081Z,97432.28
2023-01-09T17:53:20.731Z,97430.09
2023-01-09T17:55:47.333Z,97438.22
2023-01-09T17:58:34.059Z,97444.97
2023-01-09T18:01:00.663Z,97439.94
2023-01-09T18:03:33.254Z,97441.31
2023-01-09T18:06:00.280Z,97454.97
2023-01-09T18:08:27.039Z,97462.69
2023-01-09T18:10:53.614Z,97463.56
2023-01-09T18:13:20.811Z,97474.81
2023-01-09T18:15:47.364Z,97473.72
2023-01-09T18:18:16.081Z,97487.94
2023-01-09T18:20:44.310Z,97488.25
2023-01-09T18:23:11.770Z,97496.94
2023-01-09T18:25:43.042Z,97496.34
2023-01-09T18:28:12.127Z,97499.25
2023-01-09T18:30:38.576Z,97507.00
2023-01-09T18:33:05.067Z,97509.81
2023-01-09T18:35:33.858Z,97523.09
2023-01-09T18:38:00.297Z,97523.03
2023-01-09T18:40:26.854Z,97528.91
2023-01-09T18:42:53.353Z,97538.72
2023-01-09T18:45:19.772Z,97545.16
2023-01-09T18:47:46.328Z,97541.19
2023-01-09T18:50:13.453Z,97543.28
2023-01-09T18:52:39.953Z,97545.81
2023-01-09T18:55:06.901Z,97559.84
2023-01-09T18:57:34.234Z,97560.16
2023-01-09T19:00:00.678Z,97559.47
2023-01-09T19:02:27.228Z,97568.78
2023-01-09T19:04:53.731Z,97567.53
2023-01-09T19:07:20.394Z,97563.09
2023-01-09T19:09:47.112Z,97570.75
2023-01-09T19:12:13.573Z,97570.31
2023-01-09T19:14:40.125Z,97586.72
2023-01-09T19:17:07.059Z,97591.31
2023-01-09T19:19:34.344Z,97594.63
2023-01-09T19:22:01.554Z,97601.97
2023-01-09T19:24:28.283Z,97600.47
2023-01-09T19:26:54.745Z,97609.22
2023-01-09T19:29:21.133Z,97611.84
2023-01-09T19:31:48.720Z,97610.63
2023-01-09T19:34:16.014Z,97622.53
2023-01-09T19:36:45.271Z,97619.16
2023-01-09T19:39:11.648Z,97623.22
2023-01-09T19:41:38.157Z,97622.09
2023-01-09T19:44:04.912Z,97616.97
2023-01-09T19:46:33.620Z,97625.91
2023-01-09T19:49:04.520Z,97629.50
2023-01-09T19:51:32.468Z,97639.31
2023-01-09T19:56:32.249Z,97651.19
2023-01-09T19:59:01.741Z,97660.19
2023-01-09T20:01:31.720Z,97660.63
2023-01-09T20:04:03.317Z,97671.16
2023-01-09T20:06:31.015Z,97675.59
2023-01-09T20:09:00.533Z,97679.91
2023-01-09T20:11:29.116Z,97688.09
2023-01-09T20:13:56.163Z,97681.63
2023-01-09T20:16:30.174Z,97698.56
2023-01-09T20:19:03.936Z,97710.00
2023-01-09T20:21:31.352Z,97707.75
2023-01-09T20:24:00.988Z,97714.94
2023-01-09T20:26:28.869Z,97723.69
2023-01-09T20:28:55.875Z,97724.75
2023-01-09T20:31:24.967Z,97722.41
2023-01-09T20:33:51.449Z,97732.00
2023-01-09T20:36:21.573Z,97736.81
2023-01-09T20:38:48.364Z,97743.06
2023-01-09T20:41:26.010Z,97750.31
2023-01-09T20:43:58.666Z,97752.53
2023-01-09T20:46:40.031Z,97744.28
2023-01-09T20:49:09.957Z,97741.09
2023-01-09T20:51:42.426Z,97737.88
2023-01-09T20:54:08.999Z,97739.44
2023-01-09T20:56:36.764Z,97748.81
2023-01-09T20:59:04.181Z,97756.63
2023-01-09T21:01:30.651Z,97755.06
2023-01-09T21:03:57.416Z,97763.13
2023-01-09T21:06:25.523Z,97765.19
2023-01-09T21:08:53.062Z,97773.78
2023-01-09T21:11:21.286Z,97771.94
2023-01-09T21:13:47.909Z,97777.59
2023-01-09T21:16:19.400Z,97783.06
2023-01-09T21:18:50.114Z,97778.97
2023-01-09T21:21:19.858Z,97782.75
2023-01-09T21:23:54.184Z,97783.56
2023-01-09T21:26:24.791Z,97782.66
2023-01-09T21:28:54.935Z,97798.56
2023-01-09T21:31:25.357Z,97808.59
2023-01-09T21:33:54.440Z,97811.56
2023-01-09T21:36:21.550Z,97808.97
2023-01-09T21:38:48.505Z,97817.22
2023-01-09T21:41:39.184Z,97821.50
2023-01-09T21:44:25.212Z,97819.84
2023-01-09T21:46:51.729Z,97821.34
2023-01-09T21:49:23.375Z,97823.56
2023-01-09T21:51:50.007Z,97825.94
2023-01-09T21:54:16.632Z,97830.56
2023-01-09T21:56:43.125Z,97838.19
2023-01-09T21:59:10.198Z,97838.47
2023-01-09T22:01:36.860Z,97844.66
2023-01-09T22:04:03.368Z,97850.41
2023-01-09T22:06:32.351Z,97842.41
2023-01-09T22:08:59.394Z,97857.78
2023-01-09T22:11:25.840Z,97864.56
2023-01-09T22:13:52.277Z,97864.00
2023-01-09T22:16:19.252Z,97865.22
2023-01-09T22:18:46.233Z,97867.06
2023-01-09T22:21:12.986Z,97874.50
2023-01-09T22:23:39.442Z,97879.44
2023-01-09T22:26:10.374Z,97879.88
2023-01-09T22:28:36.847Z,97881.38
2023-01-09T22:31:08.424Z,97892.09
2023-01-09T22:33:35.580Z,97892.00
2023-01-09T22:36:10.582Z,97896.69
2023-01-09T22:38:37.813Z,97906.03
2023-01-09T22:41:04.482Z,97912.09
2023-01-09T22:43:31.579Z,97921.75
2023-01-09T22:46:02.852Z,97933.22
2023-01-09T22:48:31.845Z,97932.16
2023-01-09T22:51:00.305Z,97935.84
2023-01-09T22:53:27.309Z,97937.75
2023-01-09T22:56:02.239Z,97950.34
2023-01-09T22:58:30.564Z,97947.44
2023-01-09T23:00:58.875Z,97957.22
2023-01-09T23:03:26.433Z,97956.13
2023-01-09T23:06:08.026Z,97963.00
2023-01-09T23:08:35.064Z,97960.19
2023-01-09T23:11:03.849Z,97956.94
2023-01-09T23:13:30.407Z,97955.97
2023-01-09T23:15:57.034Z,97964.94
2023-01-09T23:18:24.019Z,97972.72
2023-01-09T23:20:59.358Z,97967.66
2023-01-09T23:23:27.226Z,97974.06
2023-01-09T23:25:56.203Z,97980.28
2023-01-09T23:28:23.685Z,97977.25
2023-01-09T23:30:50.116Z,97988.47
2023-01-09T23:33:17.456Z,97986.66
2023-01-09T23:35:44.602Z,98000.22
2023-01-09T23:38:11.930Z,97999.53
2023-01-09T23:40:41.439Z,98006.47
2023-01-09T23:43:10.611Z,98009.75
2023-01-09T23:45:39.120Z,98016.59
2023-01-09T23:48:07.417Z,98012.16
2023-01-09T23:50:34.865Z,98011.47
2023-01-09T23:53:02.456Z,98018.41
2023-01-09T23:55:29.335Z,98026.31
2023-01-09T23:57:57.623Z,98030.13
